< < Back
Terminal Aerodrome Forecast


Current Version              Previous Versions:   1  2  3  4  5  6  7  8  9  

Terminal Aerodrome Forecast

771
FTUS42 KTAE 181100
TAFDHN
TAF
KDHN 181120Z 1812/1912 33004KT P6SM BKN250
     FM190400 33003KT P6SM BKN100 OVC250=

Latest METAR

415
SAUS70 KWBC 181300 RRH
MTRDHN
METAR KDHN 181253Z 00000KT 8SM CLR 04/03 A3022 RMK AO2 SLP234 T00390028
$


USA.gov is the U.S. government's official web portal to all federal, state and local government web resources and services.